createdAt,value
2023-05-07T00:00:00.913Z,2.5
2023-05-07T00:05:01.309Z,4.1
2023-05-07T00:10:00.674Z,4.2
2023-05-07T00:15:00.698Z,4.8
2023-05-07T00:20:00.652Z,4.4
2023-05-07T00:25:00.743Z,2.9
2023-05-07T00:30:00.674Z,1.6
2023-05-07T00:35:00.704Z,2.1
2023-05-07T00:40:00.673Z,2.3
2023-05-07T00:45:00.692Z,3.3
2023-05-07T00:50:00.661Z,3.4
2023-05-07T00:55:00.681Z,0.7
2023-05-07T01:00:00.695Z,4.9
2023-05-07T01:05:01.253Z,4.3
2023-05-07T01:10:00.709Z,3.8
2023-05-07T01:15:00.706Z,3.6
2023-05-07T01:20:00.684Z,4.4
2023-05-07T01:25:00.779Z,4.5
2023-05-07T01:30:00.802Z,4.1
2023-05-07T01:35:00.714Z,4.5
2023-05-07T01:40:00.666Z,3.5
2023-05-07T01:45:00.697Z,5.6
2023-05-07T01:50:00.675Z,5.2
2023-05-07T01:55:00.749Z,6.5
2023-05-07T02:00:00.719Z,5.1
2023-05-07T02:05:00.766Z,3.6
2023-05-07T02:10:00.678Z,4.8
2023-05-07T02:15:00.731Z,1.8
2023-05-07T02:20:00.730Z,4.5
2023-05-07T02:25:00.696Z,7.0
2023-05-07T02:30:00.701Z,4.0
2023-05-07T02:35:00.709Z,3.1
2023-05-07T02:40:00.716Z,5.5
2023-05-07T02:45:00.682Z,3.8
2023-05-07T02:50:00.724Z,8.6
2023-05-07T02:55:00.714Z,5.2
2023-05-07T03:00:00.717Z,5.2
2023-05-07T03:05:00.711Z,7.5
2023-05-07T03:10:07.758Z,9.1
2023-05-07T03:15:00.717Z,2.9
2023-05-07T03:20:00.691Z,5.9
2023-05-07T03:25:00.774Z,2.9
2023-05-07T03:30:00.759Z,6.2
2023-05-07T03:35:00.693Z,6.6
2023-05-07T03:40:00.705Z,5.5
2023-05-07T03:45:00.716Z,7.6
2023-05-07T03:50:00.679Z,7.8
2023-05-07T03:55:00.727Z,3.8
2023-05-07T04:00:00.676Z,6.1
2023-05-07T04:05:00.705Z,5.5
2023-05-07T04:10:00.710Z,8.1
2023-05-07T04:15:00.696Z,7.4
2023-05-07T04:20:00.683Z,7.7
2023-05-07T04:25:00.692Z,8.3
2023-05-07T04:30:00.721Z,5.7
2023-05-07T04:35:00.674Z,6.6
2023-05-07T04:40:00.660Z,6.5
2023-05-07T04:45:00.687Z,4.7
2023-05-07T04:50:00.701Z,5.8
2023-05-07T04:55:00.709Z,4.7
2023-05-07T05:00:00.742Z,9.7
2023-05-07T05:05:00.679Z,8.4
2023-05-07T05:10:00.693Z,10.8
2023-05-07T05:15:00.667Z,6.0
2023-05-07T05:20:00.729Z,6.9
2023-05-07T05:25:00.740Z,10.2
2023-05-07T05:30:00.698Z,4.3
2023-05-07T05:35:00.697Z,4.5
2023-05-07T05:40:00.679Z,4.1
2023-05-07T05:45:00.653Z,7.7
2023-05-07T05:50:00.795Z,4.8
2023-05-07T05:55:00.710Z,4.6
2023-05-07T06:00:00.659Z,2.8
2023-05-07T06:05:00.833Z,2.0
2023-05-07T06:10:00.734Z,4.3
2023-05-07T06:15:00.691Z,4.7
2023-05-07T06:20:00.689Z,8.6
2023-05-07T06:25:00.692Z,5.5
2023-05-07T06:30:00.702Z,7.8
2023-05-07T06:35:00.668Z,6.9
2023-05-07T06:40:00.841Z,4.5
2023-05-07T06:45:00.710Z,8.7
2023-05-07T06:50:00.728Z,5.3
2023-05-07T06:55:00.759Z,4.3
2023-05-07T07:00:00.684Z,3.1
2023-05-07T07:05:00.811Z,8.5
2023-05-07T07:10:00.708Z,4.4
2023-05-07T07:15:00.728Z,3.7
2023-05-07T07:20:00.722Z,3.7
2023-05-07T07:25:00.703Z,5.0
2023-05-07T07:30:00.686Z,3.2
2023-05-07T07:35:00.677Z,3.9
2023-05-07T07:40:00.712Z,4.9
2023-05-07T07:45:00.704Z,3.4
2023-05-07T07:50:00.727Z,5.6
2023-05-07T07:55:00.808Z,6.8
2023-05-07T08:00:00.681Z,7.7
2023-05-07T08:05:00.699Z,7.1
2023-05-07T08:10:00.668Z,8.7
2023-05-07T08:15:00.681Z,8.2
2023-05-07T08:20:00.683Z,9.4
2023-05-07T08:25:00.757Z,9.1
2023-05-07T08:30:00.704Z,11.3
2023-05-07T08:35:00.708Z,7.1
2023-05-07T08:40:00.704Z,8.1
2023-05-07T08:45:00.688Z,6.4
2023-05-07T08:50:00.707Z,8.5
2023-05-07T08:55:00.734Z,9.2
2023-05-07T09:00:00.825Z,7.6
2023-05-07T09:05:00.704Z,18.4
2023-05-07T09:10:00.716Z,8.0
2023-05-07T09:15:00.702Z,9.4
2023-05-07T09:20:00.697Z,7.0
2023-05-07T09:25:00.710Z,11.2
2023-05-07T09:30:00.677Z,9.9
2023-05-07T09:35:00.692Z,8.7
2023-05-07T09:40:00.698Z,7.1
2023-05-07T09:45:00.744Z,9.4
2023-05-07T09:50:00.725Z,8.8
2023-05-07T09:55:00.728Z,8.1
2023-05-07T10:00:00.736Z,6.4
2023-05-07T10:05:00.888Z,10.7
2023-05-07T10:10:00.708Z,6.2
2023-05-07T10:15:00.717Z,6.4
2023-05-07T10:20:08.663Z,7.2
2023-05-07T10:25:00.649Z,6.9
2023-05-07T10:30:00.708Z,10.3
2023-05-07T10:35:00.746Z,8.9
2023-05-07T10:40:00.681Z,9.8
2023-05-07T10:45:00.724Z,5.6
2023-05-07T10:50:00.828Z,5.3
2023-05-07T10:55:00.690Z,8.0
2023-05-07T11:00:00.694Z,4.2
2023-05-07T11:05:00.791Z,6.8
2023-05-07T11:10:00.669Z,9.8
2023-05-07T11:15:00.709Z,10.3
2023-05-07T11:20:00.723Z,9.1
2023-05-07T11:25:00.702Z,10.4
2023-05-07T11:30:00.696Z,8.4
2023-05-07T11:35:00.728Z,5.3
2023-05-07T11:40:00.742Z,4.9
2023-05-07T11:45:00.651Z,8.7
2023-05-07T11:50:00.709Z,6.1
2023-05-07T11:55:00.711Z,6.2
2023-05-07T12:00:00.689Z,8.0
2023-05-07T12:05:00.780Z,4.8
2023-05-07T12:10:00.686Z,13.3
2023-05-07T12:15:00.694Z,5.4
2023-05-07T12:20:00.687Z,4.5
2023-05-07T12:25:01.043Z,8.4
2023-05-07T12:30:00.715Z,12.4
2023-05-07T12:35:00.738Z,7.1
2023-05-07T12:40:00.766Z,6.1
2023-05-07T12:45:00.741Z,6.1
2023-05-07T12:50:00.686Z,7.6
2023-05-07T12:55:00.752Z,6.1
2023-05-07T13:00:00.703Z,7.6
2023-05-07T13:05:00.702Z,10.5
2023-05-07T13:10:00.657Z,6.0
2023-05-07T13:15:00.896Z,7.4
2023-05-07T13:20:00.756Z,8.3
2023-05-07T13:25:00.704Z,7.6
2023-05-07T13:30:00.670Z,8.6
2023-05-07T13:35:00.706Z,5.6
2023-05-07T13:40:00.797Z,8.2
2023-05-07T13:45:00.924Z,11.3
2023-05-07T13:50:00.739Z,7.3
2023-05-07T13:55:00.669Z,6.7
2023-05-07T14:00:00.691Z,7.2
2023-05-07T14:05:00.714Z,6.7
2023-05-07T14:10:00.721Z,6.2
2023-05-07T14:15:00.684Z,3.1
2023-05-07T14:20:00.667Z,8.4
2023-05-07T14:25:07.501Z,7.3
2023-05-07T14:30:00.698Z,11.9
2023-05-07T14:35:00.689Z,7.5
2023-05-07T14:40:00.675Z,8.1
2023-05-07T14:45:00.690Z,7.7
2023-05-07T14:50:00.687Z,6.7
2023-05-07T14:55:00.717Z,3.9
2023-05-07T15:00:00.706Z,8.3
2023-05-07T15:05:00.712Z,7.6
2023-05-07T15:10:00.774Z,7.4
2023-05-07T15:15:00.712Z,11.2
2023-05-07T15:20:00.940Z,10.7
2023-05-07T15:25:00.680Z,7.4
2023-05-07T15:30:00.881Z,4.3
2023-05-07T15:35:00.680Z,5.9
2023-05-07T15:40:00.869Z,6.5
2023-05-07T15:45:00.712Z,4.9
2023-05-07T15:50:00.928Z,6.8
2023-05-07T15:55:00.779Z,4.9
2023-05-07T16:00:00.661Z,11.3
2023-05-07T16:05:00.699Z,8.7
2023-05-07T16:10:00.663Z,10.7
2023-05-07T16:15:00.686Z,9.0
2023-05-07T16:20:00.810Z,5.4
2023-05-07T16:25:00.715Z,5.9
2023-05-07T16:30:00.689Z,5.9
2023-05-07T16:35:00.680Z,3.0
2023-05-07T16:40:00.707Z,10.2
2023-05-07T16:45:00.766Z,7.1
2023-05-07T16:50:00.703Z,5.7
2023-05-07T16:55:00.778Z,11.2
2023-05-07T17:00:01.077Z,4.2
2023-05-07T17:05:00.878Z,5.4
2023-05-07T17:10:00.729Z,9.3
2023-05-07T17:15:00.758Z,12.2
2023-05-07T17:20:00.661Z,8.0
2023-05-07T17:25:00.697Z,7.5
2023-05-07T17:30:00.735Z,5.7
2023-05-07T17:35:00.910Z,5.6
2023-05-07T17:40:00.733Z,4.7
2023-05-07T17:45:00.705Z,6.1
2023-05-07T17:50:02.405Z,4.6
2023-05-07T17:55:00.687Z,3.9
2023-05-07T18:00:00.713Z,5.0
2023-05-07T18:05:00.811Z,4.8
2023-05-07T18:10:00.732Z,5.0
2023-05-07T18:15:00.721Z,6.1
2023-05-07T18:20:00.670Z,4.6
2023-05-07T18:25:00.689Z,3.9
2023-05-07T18:30:00.707Z,3.8
2023-05-07T18:35:00.704Z,5.9
2023-05-07T18:40:00.687Z,6.2
2023-05-07T18:45:00.698Z,4.5
2023-05-07T18:50:00.708Z,5.2
2023-05-07T18:55:00.721Z,3.1
2023-05-07T19:00:00.670Z,3.2
2023-05-07T19:05:00.684Z,4.2
2023-05-07T19:15:00.457Z,3.2
2023-05-07T19:20:00.296Z,2.3
2023-05-07T19:25:00.365Z,4.2
2023-05-07T19:30:00.301Z,4.1
2023-05-07T19:35:00.265Z,6.1
2023-05-07T19:40:00.296Z,4.8
2023-05-07T19:45:00.300Z,2.7
2023-05-07T19:50:00.399Z,4.6
2023-05-07T19:55:00.310Z,2.5
2023-05-07T20:00:00.325Z,5.5
2023-05-07T20:05:00.310Z,2.6
2023-05-07T20:10:00.381Z,3.5
2023-05-07T20:15:00.259Z,3.0
2023-05-07T20:20:00.351Z,1.9
2023-05-07T20:25:00.260Z,1.3
2023-05-07T20:30:00.354Z,1.6
2023-05-07T20:35:00.343Z,0.5
2023-05-07T20:40:00.398Z,1.0
2023-05-07T20:45:04.046Z,1.4
2023-05-07T20:50:00.344Z,0.5
2023-05-07T20:55:00.323Z,1.2
2023-05-07T21:00:00.265Z,2.9
2023-05-07T21:05:00.256Z,2.1
2023-05-07T21:10:00.379Z,1.7
2023-05-07T21:15:00.338Z,2.3
2023-05-07T21:20:00.328Z,0.9
2023-05-07T21:25:00.270Z,0.5
2023-05-07T21:30:00.299Z,1.4
2023-05-07T21:35:00.421Z,2.6
2023-05-07T21:40:00.301Z,1.5
2023-05-07T21:45:00.259Z,3.1
2023-05-07T21:50:00.317Z,1.5
2023-05-07T21:55:00.304Z,2.4
2023-05-07T22:00:00.426Z,4.6
2023-05-07T22:05:00.287Z,3.7
2023-05-07T22:10:00.297Z,0.8
2023-05-07T22:15:00.323Z,0.9
2023-05-07T22:20:00.312Z,0.8
2023-05-07T22:25:00.250Z,1.3
2023-05-07T22:30:00.305Z,0.7
2023-05-07T22:35:00.478Z,0.6
2023-05-07T22:40:00.322Z,1.1
2023-05-07T22:45:00.328Z,1.0
2023-05-07T22:50:00.461Z,1.0
2023-05-07T22:55:00.278Z,0.4
2023-05-07T23:00:00.340Z,1.2
2023-05-07T23:05:00.322Z,1.4
2023-05-07T23:10:00.283Z,0.9
2023-05-07T23:15:00.296Z,0.1
2023-05-07T23:20:00.466Z,0.5
2023-05-07T23:25:00.348Z,0.5
2023-05-07T23:30:00.347Z,0.6
2023-05-07T23:35:00.357Z,1.2
2023-05-07T23:40:00.287Z,0.7
2023-05-07T23:45:00.274Z,1.3
2023-05-07T23:50:00.350Z,2.3
2023-05-07T23:55:00.394Z,1.3
